Lake Wales, FL

2:00 PM EST on February 12, 2016 (GMT -0500)
APRSWXNET | | Change Station
CLOSE
Current Station
Personal Weather Station
Location: Lake Wales, FL
Elevation: 121 ft
Nearby Weather Stations

Elev 121 ft 27.79 °N, 81.33 °W | Updated 37 minutes ago

Clear
Clear
75 °F
Feels Like 77 °F
N
0
Wind Variable Wind from North
Gusts 0.0 mph

Today
High -- | Low -- °F
--% Chance of Precip.
Yesterday
High -- | Low -- °F
Precip. -- in
Pressure 30.23 in
Visibility 15.0 miles
Clouds Clear
Heat Index 77 °F
Dew Point 44 °F
Humidity 33%
Rainfall in
Snow Depth Not available.
7:05 AM 6:14 PM
Waxing Crescent, 22% visible
METAR KBOW 121857Z 26010G18KT 15SM SKC 23/10 A3023
Pressure 30.23 in
Visibility 15.0 miles
Clouds Clear
Heat Index 77 °F
Dew Point 44 °F
Humidity 33%
Rainfall in
Snow Depth Not available.
7:05 AM 6:14 PM
Waxing Crescent, 22% visible
METAR KBOW 121857Z 26010G18KT 15SM SKC 23/10 A3023

10-Day Weather Forecast

Almanac

Astronomy

Feb. 12, 2016 Rise Set
Actual Time
Civil Twilight
Nautical Twilight
Astronomical Twilight
Moon
Length of Visible Light
Length of Day
Tomorrow will be .
, % of the Moon is Illuminated

Today's Extremes

State Highs State Lows

Community

WunderPhotos

Upload Photos

1,892,369 photos uploaded!

WunderBlog® & News

Nearby

Air Quality

  Air Quality AQ Index Pollutant
Not available.

Snow Depth

Station Depth Elevation

Earthquake Activity

City Distance Mag. Time & Date
Minimum magnitude displayed is 2.5.

Coastal Water Temperatures

Place Temperature

Stations

Nearby Weather Stations

Station Location Temp. Windchill Dew Point Humidity Wind Precip. Elev Updated Type
                   

Watches & Warnings

There are currently no watches in effect.